Time;durP1;ratioP1;P1;durP2;ratioP2;P2;SDS_P1;SDS_P2;PMS_P1;PMS_P2;Temp;Humidity;BMP_temperature;BMP_pressure;BME280_temperature;BME280_humidity;BME280_pressure;Samples;Min_cycle;Max_cycle;Signal;HPM_P1;HPM_P2
2022/07/28 00:01:56;;;;;;;4.63;3.67;;;;;21.90;98811.00;;;;16511280;28;20224;-50
2022/07/28 00:18:10;;;;;;;4.00;3.10;;;;;20.70;98816.00;;;;16700725;28;20210;-49
2022/07/28 00:26:13;;;;;;;4.20;1.90;;;;;21.50;98801.00;;;;16748892;28;20367;-49
2022/07/28 00:34:16;;;;;;;3.47;2.80;;;;;20.20;98797.00;;;;16752396;28;20708;-46
2022/07/28 00:42:19;;;;;;;4.33;2.60;;;;;20.60;98796.00;;;;16765252;28;20311;-46
2022/07/28 00:59:46;;;;;;;5.87;2.53;;;;;20.80;98786.00;;;;16742448;28;20185;-46
2022/07/28 01:07:55;;;;;;;5.07;2.80;;;;;20.90;98786.00;;;;16738631;28;20320;-47
2022/07/28 01:16:03;;;;;;;5.20;2.93;;;;;20.40;98776.00;;;;16752270;28;20615;-46
2022/07/28 01:24:12;;;;;;;3.73;2.53;;;;;19.90;98776.00;;;;16752822;28;20620;-46
2022/07/28 01:32:19;;;;;;;2.90;2.70;;;;;19.80;98773.00;;;;16755811;28;20237;-46
2022/07/28 01:40:24;;;;;;;4.83;2.67;;;;;19.20;98771.00;;;;16739319;28;20214;-47
2022/07/28 01:48:29;;;;;;;2.90;2.60;;;;;18.50;98768.00;;;;16745330;28;20735;-46
2022/07/28 01:56:33;;;;;;;3.80;3.13;;;;;18.70;98761.00;;;;16745196;28;20343;-48
2022/07/28 02:04:39;;;;;;;5.70;2.47;;;;;18.50;98751.00;;;;16745447;28;20230;-48
2022/07/28 02:12:42;;;;;;;4.00;2.63;;;;;19.10;98748.00;;;;16738547;28;20431;-49
2022/07/28 02:20:46;;;;;;;3.63;2.90;;;;;20.40;98732.00;;;;16738933;28;20688;-50
2022/07/28 02:28:51;;;;;;;3.50;2.57;;;;;18.80;98729.00;;;;16757255;28;20224;-49
2022/07/28 02:36:58;;;;;;;4.60;2.70;;;;;19.50;98719.00;;;;16750350;28;20224;-49
2022/07/28 02:45:03;;;;;;;3.53;3.17;;;;;20.50;98717.00;;;;16772825;28;20540;-46
2022/07/28 02:53:08;;;;;;;6.03;3.13;;;;;18.90;98726.00;;;;16744075;28;20219;-45
2022/07/28 03:01:11;;;;;;;4.63;3.10;;;;;17.50;98730.00;;;;16758022;28;20225;-46
2022/07/28 03:09:14;;;;;;;4.77;3.00;;;;;18.00;98738.00;;;;16747881;28;20583;-46
2022/07/28 03:17:18;;;;;;;6.90;3.50;;;;;17.80;98730.00;;;;16753362;28;20718;-46
2022/07/28 03:25:30;;;;;;;7.40;3.93;;;;;17.40;98725.00;;;;16754682;28;20235;-46
2022/07/28 03:33:32;;;;;;;4.50;3.00;;;;;18.30;98730.00;;;;16753242;28;20811;-46
2022/07/28 03:41:37;;;;;;;3.97;3.67;;;;;17.30;98728.00;;;;16760780;28;20321;-46
2022/07/28 03:49:39;;;;;;;6.07;3.40;;;;;17.40;98736.00;;;;16742654;28;20680;-46
2022/07/28 03:57:43;;;;;;;3.67;3.37;;;;;18.50;98735.00;;;;16757056;28;20239;-46
2022/07/28 04:05:46;;;;;;;3.80;3.10;;;;;17.70;98747.00;;;;16735219;28;20593;-47
2022/07/28 04:13:50;;;;;;;4.27;3.37;;;;;17.70;98756.00;;;;16751381;28;20316;-48
2022/07/28 04:21:52;;;;;;;3.90;3.60;;;;;17.80;98752.00;;;;16754856;28;20249;-49
2022/07/28 04:29:56;;;;;;;4.40;3.33;;;;;18.40;98749.00;;;;16737876;28;20227;-49
2022/07/28 04:37:58;;;;;;;4.20;3.20;;;;;18.20;98748.00;;;;16741170;28;20218;-49
2022/07/28 04:46:02;;;;;;;3.30;3.00;;;;;17.50;98748.00;;;;16745895;28;20393;-49
2022/07/28 04:54:04;;;;;;;5.13;3.73;;;;;18.40;98742.00;;;;16740588;28;20251;-49
2022/07/28 05:02:08;;;;;;;5.83;3.50;;;;;19.30;98734.00;;;;16749836;28;20224;-49
2022/07/28 05:10:12;;;;;;;2.83;2.57;;;;;19.20;98739.00;;;;16745241;28;20223;-49
2022/07/28 05:18:16;;;;;;;6.50;3.40;;;;;19.70;98738.00;;;;16747702;28;20282;-48
2022/07/28 05:26:18;;;;;;;5.30;3.50;;;;;19.70;98739.00;;;;16749153;28;20233;-49
2022/07/28 05:34:22;;;;;;;3.70;3.30;;;;;20.90;98733.00;;;;16765906;28;20218;-48
2022/07/28 05:42:27;;;;;;;5.07;4.20;;;;;21.30;98727.00;;;;16758373;28;20726;-49
2022/07/28 05:50:31;;;;;;;6.23;3.57;;;;;22.30;98724.00;;;;16759330;28;20229;-49
2022/07/28 05:58:33;;;;;;;7.67;3.80;;;;;22.40;98722.00;;;;16756884;28;20285;-49
2022/07/28 06:06:37;;;;;;;5.93;3.57;;;;;23.30;98718.00;;;;16774883;28;20232;-49
2022/07/28 06:14:39;;;;;;;6.27;4.20;;;;;23.20;98719.00;;;;16773799;28;20648;-49
2022/07/28 06:22:44;;;;;;;12.00;4.83;;;;;22.90;98718.00;;;;16770637;28;20736;-48
2022/07/28 06:30:47;;;;;;;9.37;4.40;;;;;24.00;98713.00;;;;16771512;28;20704;-48
2022/07/28 06:38:50;;;;;;;8.43;4.83;;;;;24.50;98720.00;;;;16761932;28;20197;-48
2022/07/28 06:46:53;;;;;;;10.57;4.93;;;;;25.10;98713.00;;;;16759389;28;20224;-48
2022/07/28 06:54:59;;;;;;;5.70;4.53;;;;;24.50;98707.00;;;;16739129;28;20236;-48
2022/07/28 07:03:01;;;;;;;9.83;4.77;;;;;25.30;98718.00;;;;16772073;28;20567;-48
2022/07/28 07:11:05;;;;;;;8.50;5.47;;;;;25.50;98710.00;;;;16760178;28;20716;-48
2022/07/28 07:19:07;;;;;;;6.93;5.07;;;;;25.50;98701.00;;;;16768731;28;20201;-48
2022/07/28 07:27:11;;;;;;;9.00;8.10;;;;;26.20;98707.00;;;;16763223;28;20225;-49
2022/07/28 07:35:14;;;;;;;6.83;6.07;;;;;26.80;98697.00;;;;16768761;28;20308;-48
2022/07/28 07:43:18;;;;;;;6.53;5.27;;;;;26.20;98690.00;;;;16777423;28;20213;-48
2022/07/28 07:51:20;;;;;;;8.37;6.33;;;;;26.60;98697.00;;;;16773029;28;20324;-48
2022/07/28 07:59:24;;;;;;;9.00;6.00;;;;;26.20;98698.00;;;;16771659;28;20189;-48
2022/07/28 08:07:26;;;;;;;6.87;6.20;;;;;27.20;98697.00;;;;16763798;28;20824;-49
2022/07/28 08:15:30;;;;;;;6.23;5.63;;;;;26.70;98687.00;;;;16772398;28;20225;-49
2022/07/28 08:23:33;;;;;;;6.30;5.70;;;;;26.40;98694.00;;;;16777834;28;20783;-48
2022/07/28 08:31:37;;;;;;;6.60;5.77;;;;;26.50;98683.00;;;;16754308;28;20718;-48
2022/07/28 08:39:39;;;;;;;8.40;6.67;;;;;27.10;98685.00;;;;16769776;28;20202;-48
2022/07/28 08:47:44;;;;;;;10.57;8.27;;;;;27.50;98681.00;;;;16769831;28;20247;-48
2022/07/28 08:55:47;;;;;;;11.87;7.10;;;;;26.90;98673.00;;;;16773386;28;20228;-47
2022/07/28 09:03:51;;;;;;;8.10;6.33;;;;;27.60;98653.00;;;;16768844;28;20214;-48
2022/07/28 09:11:53;;;;;;;6.50;5.93;;;;;28.40;98656.00;;;;16746400;28;20274;-49
2022/07/28 09:19:57;;;;;;;8.27;6.67;;;;;28.30;98656.00;;;;16758866;28;20193;-48
2022/07/28 09:28:07;;;;;;;6.53;6.00;;;;;29.00;98649.00;;;;16752425;28;20850;-48
2022/07/28 09:36:15;;;;;;;6.73;6.13;;;;;29.60;98643.00;;;;16757303;28;20231;-48
2022/07/28 09:44:19;;;;;;;8.00;6.27;;;;;28.50;98636.00;;;;16734935;28;20295;-48
2022/07/28 09:52:30;;;;;;;7.33;6.23;;;;;29.30;98625.00;;;;16742986;28;20236;-48
2022/07/28 10:00:33;;;;;;;8.37;6.10;;;;;30.00;98625.00;;;;16747682;28;20217;-49
2022/07/28 10:08:47;;;;;;;6.80;6.10;;;;;30.00;98625.00;;;;16746735;28;20257;-48
2022/07/28 10:16:52;;;;;;;6.90;6.40;;;;;29.10;98612.00;;;;16731145;28;20263;-48
2022/07/28 10:24:56;;;;;;;6.20;5.60;;;;;30.60;98602.00;;;;16748437;28;20225;-48
2022/07/28 10:32:59;;;;;;;11.13;6.03;;;;;29.40;98601.00;;;;16743808;22;20748;-50
2022/07/28 10:41:06;;;;;;;9.30;6.50;;;;;30.80;98590.00;;;;16699258;28;20222;-52
2022/07/28 10:49:10;;;;;;;7.20;6.17;;;;;31.50;98588.00;;;;16661263;28;20321;-52
2022/07/28 10:57:14;;;;;;;8.43;6.40;;;;;32.70;98576.00;;;;16669152;28;20226;-52
2022/07/28 11:05:27;;;;;;;8.37;6.33;;;;;30.70;98587.00;;;;16654488;28;20307;-51
2022/07/28 11:13:34;;;;;;;6.63;5.90;;;;;32.10;98581.00;;;;16663903;28;20218;-51
2022/07/28 11:21:36;;;;;;;5.10;4.60;;;;;33.60;98577.00;;;;16670349;28;20849;-50
2022/07/28 11:29:46;;;;;;;6.10;5.43;;;;;32.80;98571.00;;;;16677072;28;20244;-50
2022/07/28 11:38:09;;;;;;;5.80;5.20;;;;;33.40;98566.00;;;;16673220;28;20458;-52
2022/07/28 11:46:32;;;;;;;7.70;5.97;;;;;32.20;98560.00;;;;16663037;28;20250;-52
2022/07/28 11:54:35;;;;;;;10.37;5.43;;;;;31.40;98573.00;;;;16676257;28;20396;-51
2022/07/28 12:02:41;;;;;;;4.90;4.37;;;;;33.50;98565.00;;;;16669104;28;20611;-51
2022/07/28 12:10:43;;;;;;;4.33;4.03;;;;;34.50;98558.00;;;;16675213;28;20377;-52
2022/07/28 12:18:52;;;;;;;5.30;4.80;;;;;33.40;98547.00;;;;16666073;28;20257;-51
2022/07/28 12:26:56;;;;;;;6.43;4.27;;;;;32.60;98550.00;;;;16693445;28;20239;-51
2022/07/28 12:35:01;;;;;;;5.47;4.37;;;;;34.40;98539.00;;;;16675892;28;20214;-53
2022/07/28 12:43:04;;;;;;;6.43;4.60;;;;;35.00;98536.00;;;;16675325;28;20237;-52
2022/07/28 12:51:07;;;;;;;5.10;4.70;;;;;36.00;98535.00;;;;16654198;28;20229;-50
2022/07/28 12:59:12;;;;;;;5.97;5.37;;;;;33.50;98534.00;;;;16685457;28;20195;-51
2022/07/28 13:07:25;;;;;;;4.37;3.97;;;;;32.50;98527.00;;;;16670377;28;20574;-52
2022/07/28 13:15:27;;;;;;;5.03;4.53;;;;;33.70;98518.00;;;;16678014;28;20222;-52
2022/07/28 13:23:31;;;;;;;5.67;5.13;;;;;33.10;98508.00;;;;16670211;28;20301;-49
2022/07/28 13:31:35;;;;;;;5.83;5.23;;;;;34.40;98507.00;;;;16641907;28;20301;-50
2022/07/28 13:39:39;;;;;;;4.70;4.30;;;;;34.50;98510.00;;;;16670328;28;20474;-47
2022/07/28 13:47:41;;;;;;;4.20;3.80;;;;;34.30;98496.00;;;;16679085;28;20250;-49
2022/07/28 13:55:45;;;;;;;5.00;4.60;;;;;34.90;98485.00;;;;16669873;28;20221;-53
2022/07/28 14:03:47;;;;;;;5.03;4.50;;;;;36.80;98483.00;;;;16660332;28;20349;-51
2022/07/28 14:11:51;;;;;;;5.53;4.60;;;;;37.00;98477.00;;;;16657909;28;20599;-49
2022/07/28 14:19:54;;;;;;;7.20;4.40;;;;;36.60;98468.00;;;;16672040;28;20194;-48
2022/07/28 14:27:58;;;;;;;5.03;4.40;;;;;35.60;98462.00;;;;16684174;28;20237;-49
2022/07/28 14:36:00;;;;;;;5.57;5.00;;;;;38.80;98453.00;;;;16690415;28;20555;-50
2022/07/28 14:44:04;;;;;;;5.33;3.87;;;;;38.40;98439.00;;;;16682661;28;20242;-50
2022/07/28 14:52:07;;;;;;;5.17;4.40;;;;;39.40;98436.00;;;;16698944;28;20725;-49
2022/07/28 15:00:14;;;;;;;4.30;3.70;;;;;40.00;98441.00;;;;16694130;28;20206;-50
2022/07/28 15:08:16;;;;;;;5.53;4.83;;;;;38.90;98442.00;;;;16675766;28;20264;-50
2022/07/28 15:16:20;;;;;;;5.60;4.30;;;;;37.20;98442.00;;;;16687214;28;20628;-51
2022/07/28 15:24:26;;;;;;;9.50;4.70;;;;;39.20;98439.00;;;;16675288;28;20222;-50
2022/07/28 15:32:29;;;;;;;4.30;4.00;;;;;38.00;98421.00;;;;16672782;28;20233;-49
2022/07/28 15:40:32;;;;;;;6.00;3.77;;;;;39.40;98426.00;;;;16683925;28;20713;-50
2022/07/28 15:48:36;;;;;;;6.20;4.13;;;;;39.00;98418.00;;;;16685621;28;20228;-49
2022/07/28 15:56:38;;;;;;;5.03;4.53;;;;;37.80;98420.00;;;;16671324;28;20210;-50
2022/07/28 16:04:42;;;;;;;5.00;3.93;;;;;37.20;98417.00;;;;16669318;28;20292;-48
2022/07/28 16:12:45;;;;;;;8.57;4.47;;;;;37.40;98402.00;;;;16684946;28;20231;-51
2022/07/28 16:20:48;;;;;;;4.10;3.80;;;;;36.80;98408.00;;;;16647620;28;20304;-48
2022/07/28 16:28:51;;;;;;;5.20;4.10;;;;;38.40;98402.00;;;;16653017;28;20215;-50
2022/07/28 16:36:55;;;;;;;4.20;3.67;;;;;37.20;98398.00;;;;16757262;22;20298;-80
2022/07/28 16:44:57;;;;;;;4.50;4.10;;;;;37.20;98398.00;;;;16779244;28;20209;-79
2022/07/28 16:53:03;;;;;;;4.87;4.47;;;;;36.30;98390.00;;;;16749639;28;20745;-79
2022/07/28 17:01:07;;;;;;;4.60;4.13;;;;;36.90;98387.00;;;;16774276;28;20221;-79
2022/07/28 17:09:11;;;;;;;5.27;4.30;;;;;37.30;98382.00;;;;16782455;28;20221;-80
2022/07/28 17:17:13;;;;;;;4.37;3.77;;;;;37.50;98389.00;;;;16773159;28;20316;-79
2022/07/28 17:25:17;;;;;;;6.33;4.47;;;;;35.70;98403.00;;;;16764506;28;20232;-79
2022/07/28 17:33:20;;;;;;;5.50;5.00;;;;;35.40;98415.00;;;;16790086;28;20241;-79
2022/07/28 17:41:25;;;;;;;5.30;4.30;;;;;34.70;98417.00;;;;16775613;28;20288;-79
2022/07/28 17:49:27;;;;;;;4.80;4.37;;;;;34.10;98425.00;;;;16757546;28;21030;-79
2022/07/28 17:57:31;;;;;;;4.90;4.40;;;;;32.80;98423.00;;;;16758697;28;20698;-78
2022/07/28 18:05:33;;;;;;;6.70;6.00;;;;;33.30;98418.00;;;;16798579;28;20721;-81
2022/07/28 18:13:37;;;;;;;9.67;5.63;;;;;33.00;98418.00;;;;16781387;28;20847;-80
2022/07/28 18:21:39;;;;;;;6.60;6.00;;;;;33.00;98424.00;;;;16775538;22;20374;-49
2022/07/28 18:29:43;;;;;;;8.97;6.70;;;;;33.00;98414.00;;;;16806855;22;20236;-47
2022/07/28 18:37:46;;;;;;;6.90;5.90;;;;;32.80;98422.00;;;;16790326;28;20521;-47
2022/07/28 18:45:50;;;;;;;6.30;5.20;;;;;32.70;98423.00;;;;16802273;28;20217;-46
2022/07/28 18:53:52;;;;;;;5.37;4.90;;;;;31.70;98409.00;;;;16811366;28;20228;-47
2022/07/28 19:01:56;;;;;;;10.43;9.43;;;;;31.60;98409.00;;;;16789481;28;20225;-47
2022/07/28 19:09:59;;;;;;;12.50;5.47;;;;;31.00;98419.00;;;;16806613;28;20614;-46
2022/07/28 19:18:04;;;;;;;5.87;5.17;;;;;31.20;98428.00;;;;16762836;28;20881;-47
2022/07/28 19:26:06;;;;;;;6.70;5.33;;;;;31.00;98441.00;;;;16768226;28;20209;-46
2022/07/28 19:34:10;;;;;;;8.23;6.90;;;;;30.80;98439.00;;;;16773886;28;20216;-46
2022/07/28 19:42:13;;;;;;;6.03;5.43;;;;;31.00;98467.00;;;;16764853;28;20223;-47
2022/07/28 19:50:17;;;;;;;5.50;4.87;;;;;31.20;98515.00;;;;16760945;28;20221;-46
2022/07/28 19:58:19;;;;;;;8.50;6.23;;;;;27.80;98582.00;;;;16774028;28;20235;-48
2022/07/28 20:06:23;;;;;;;13.20;5.80;;;;;27.10;98576.00;;;;16802225;28;20225;-48
2022/07/28 20:14:26;;;;;;;9.20;6.40;;;;;26.10;98630.00;;;;16814692;28;20235;-48
2022/07/28 20:22:30;;;;;;;8.53;7.50;;;;;25.80;98655.00;;;;16755899;28;20241;-48
2022/07/28 20:30:33;;;;;;;11.17;10.10;;;;;26.70;98666.00;;;;16779215;28;20233;-48
2022/07/28 20:38:38;;;;;;;8.50;7.53;;;;;25.10;98726.00;;;;16787460;28;20216;-48
2022/07/28 20:46:40;;;;;;;8.37;7.67;;;;;26.00;98705.00;;;;16812492;28;20218;-48
2022/07/28 20:54:44;;;;;;;6.60;6.10;;;;;27.10;98689.00;;;;16777999;28;20723;-48
2022/07/28 21:02:47;;;;;;;10.27;7.57;;;;;26.60;98680.00;;;;16766820;28;20220;-48
2022/07/28 21:10:51;;;;;;;8.97;8.17;;;;;25.20;98704.00;;;;16761372;28;20251;-48
2022/07/28 21:18:54;;;;;;;9.03;7.67;;;;;25.40;98680.00;;;;16766012;28;20210;-48
2022/07/28 21:26:58;;;;;;;7.63;6.93;;;;;26.50;98680.00;;;;16756912;28;20205;-48
2022/07/28 21:35:00;;;;;;;7.87;7.27;;;;;23.50;98706.00;;;;16772737;28;20317;-48
2022/07/28 21:43:04;;;;;;;7.00;6.00;;;;;25.20;98716.00;;;;16754129;28;20331;-48
2022/07/28 21:51:06;;;;;;;8.00;7.30;;;;;25.80;98717.00;;;;16763600;28;20217;-48
2022/07/28 21:59:10;;;;;;;7.00;6.40;;;;;25.90;98718.00;;;;16755591;28;20218;-48
2022/07/28 22:07:13;;;;;;;7.13;6.50;;;;;26.60;98738.00;;;;16736106;28;20241;-48
2022/07/28 22:15:17;;;;;;;6.93;6.33;;;;;26.00;98726.00;;;;16756184;28;20197;-49
2022/07/28 22:23:19;;;;;;;6.20;5.70;;;;;26.20;98723.00;;;;16763016;28;20217;-49
2022/07/28 22:31:23;;;;;;;7.50;6.90;;;;;26.00;98699.00;;;;16766339;28;20305;-48
2022/07/28 22:39:25;;;;;;;7.40;6.80;;;;;25.70;98722.00;;;;16743232;28;20304;-48
2022/07/28 22:47:29;;;;;;;6.87;6.17;;;;;26.30;98728.00;;;;16771021;28;20725;-48
2022/07/28 22:55:32;;;;;;;7.50;6.83;;;;;25.00;98726.00;;;;16751747;28;20661;-48
2022/07/28 23:03:35;;;;;;;6.83;6.23;;;;;26.30;98727.00;;;;16766029;28;20300;-48
2022/07/28 23:11:38;;;;;;;7.47;6.73;;;;;26.00;98696.00;;;;16747536;28;20312;-48
2022/07/28 23:19:42;;;;;;;6.80;6.30;;;;;25.70;98690.00;;;;16756903;28;20312;-48
2022/07/28 23:27:44;;;;;;;5.67;5.27;;;;;25.50;98697.00;;;;16741020;28;20229;-48
2022/07/28 23:35:48;;;;;;;6.57;5.97;;;;;25.70;98691.00;;;;16750419;28;20801;-48
2022/07/28 23:43:50;;;;;;;8.93;7.20;;;;;26.30;98689.00;;;;16745485;28;20222;-49
2022/07/28 23:51:54;;;;;;;8.27;7.50;;;;;26.30;98687.00;;;;16749452;28;20286;-49
2022/07/28 23:59:56;;;;;;;7.60;6.90;;;;;26.10;98674.00;;;;16748623;28;20585;-49
